sensor_id;sensor_type;location;lat;lon;timestamp;P1;durP1;ratioP1;P2;durP2;ratioP2
67248;SDS011;63247;54.300;18.592;2024-02-26T00:00:36;16.98;;;6.63;;
67248;SDS011;63247;54.300;18.592;2024-02-26T00:03:02;14.43;;;6.27;;
67248;SDS011;63247;54.300;18.592;2024-02-26T00:05:28;14.68;;;6.28;;
67248;SDS011;63247;54.300;18.592;2024-02-26T00:07:53;14.10;;;5.90;;
67248;SDS011;63247;54.300;18.592;2024-02-26T00:10:19;13.53;;;6.30;;
67248;SDS011;63247;54.300;18.592;2024-02-26T00:12:44;16.20;;;5.88;;
67248;SDS011;63247;54.300;18.592;2024-02-26T00:15:10;12.90;;;5.70;;
67248;SDS011;63247;54.300;18.592;2024-02-26T00:17:35;17.43;;;6.30;;
67248;SDS011;63247;54.300;18.592;2024-02-26T00:20:04;14.80;;;6.35;;
67248;SDS011;63247;54.300;18.592;2024-02-26T00:22:33;14.25;;;5.85;;
67248;SDS011;63247;54.300;18.592;2024-02-26T00:24:59;17.48;;;6.70;;
67248;SDS011;63247;54.300;18.592;2024-02-26T00:27:26;17.63;;;6.80;;
67248;SDS011;63247;54.300;18.592;2024-02-26T00:29:51;18.75;;;6.72;;
67248;SDS011;63247;54.300;18.592;2024-02-26T00:32:17;16.70;;;6.30;;
67248;SDS011;63247;54.300;18.592;2024-02-26T00:34:43;15.60;;;6.80;;
67248;SDS011;63247;54.300;18.592;2024-02-26T00:37:08;16.15;;;7.07;;
67248;SDS011;63247;54.300;18.592;2024-02-26T00:39:34;18.13;;;6.40;;
67248;SDS011;63247;54.300;18.592;2024-02-26T00:41:59;14.67;;;6.20;;
67248;SDS011;63247;54.300;18.592;2024-02-26T00:44:25;14.70;;;6.10;;
67248;SDS011;63247;54.300;18.592;2024-02-26T00:46:50;17.10;;;6.78;;
67248;SDS011;63247;54.300;18.592;2024-02-26T00:49:15;15.75;;;7.00;;
67248;SDS011;63247;54.300;18.592;2024-02-26T00:51:42;15.50;;;6.40;;
67248;SDS011;63247;54.300;18.592;2024-02-26T00:54:10;14.57;;;6.80;;
67248;SDS011;63247;54.300;18.592;2024-02-26T00:56:35;17.20;;;7.18;;
67248;SDS011;63247;54.300;18.592;2024-02-26T00:59:01;19.58;;;7.57;;
67248;SDS011;63247;54.300;18.592;2024-02-26T01:01:26;16.10;;;6.80;;
67248;SDS011;63247;54.300;18.592;2024-02-26T01:03:52;16.73;;;7.13;;
67248;SDS011;63247;54.300;18.592;2024-02-26T01:06:18;21.08;;;7.72;;
67248;SDS011;63247;54.300;18.592;2024-02-26T01:08:43;18.50;;;7.73;;
67248;SDS011;63247;54.300;18.592;2024-02-26T01:11:09;20.47;;;8.63;;
67248;SDS011;63247;54.300;18.592;2024-02-26T01:13:34;21.83;;;9.32;;
67248;SDS011;63247;54.300;18.592;2024-02-26T01:16:00;20.80;;;9.03;;
67248;SDS011;63247;54.300;18.592;2024-02-26T01:18:26;22.48;;;9.50;;
67248;SDS011;63247;54.300;18.592;2024-02-26T01:20:52;21.23;;;9.10;;
67248;SDS011;63247;54.300;18.592;2024-02-26T01:23:19;22.38;;;9.35;;
67248;SDS011;63247;54.300;18.592;2024-02-26T01:25:45;22.45;;;9.80;;
67248;SDS011;63247;54.300;18.592;2024-02-26T01:28:12;24.38;;;9.98;;
67248;SDS011;63247;54.300;18.592;2024-02-26T01:30:37;24.02;;;9.63;;
67248;SDS011;63247;54.300;18.592;2024-02-26T01:33:02;22.83;;;10.00;;
67248;SDS011;63247;54.300;18.592;2024-02-26T01:35:28;27.27;;;10.63;;
67248;SDS011;63247;54.300;18.592;2024-02-26T01:37:54;26.30;;;11.13;;
67248;SDS011;63247;54.300;18.592;2024-02-26T01:40:20;23.60;;;9.80;;
67248;SDS011;63247;54.300;18.592;2024-02-26T01:42:46;25.00;;;10.10;;
67248;SDS011;63247;54.300;18.592;2024-02-26T01:45:16;25.20;;;10.43;;
67248;SDS011;63247;54.300;18.592;2024-02-26T01:47:50;29.27;;;10.63;;
67248;SDS011;63247;54.300;18.592;2024-02-26T01:50:16;24.25;;;10.13;;
67248;SDS011;63247;54.300;18.592;2024-02-26T01:52:44;26.35;;;10.57;;
67248;SDS011;63247;54.300;18.592;2024-02-26T01:55:12;24.20;;;10.30;;
67248;SDS011;63247;54.300;18.592;2024-02-26T01:57:39;26.23;;;10.65;;
67248;SDS011;63247;54.300;18.592;2024-02-26T02:00:06;27.00;;;10.50;;
67248;SDS011;63247;54.300;18.592;2024-02-26T02:02:32;27.13;;;10.10;;
67248;SDS011;63247;54.300;18.592;2024-02-26T02:04:59;23.92;;;10.38;;
67248;SDS011;63247;54.300;18.592;2024-02-26T02:07:25;23.47;;;9.63;;
67248;SDS011;63247;54.300;18.592;2024-02-26T02:09:51;24.13;;;10.00;;
67248;SDS011;63247;54.300;18.592;2024-02-26T02:12:18;24.90;;;10.13;;
67248;SDS011;63247;54.300;18.592;2024-02-26T02:14:44;24.83;;;10.30;;
67248;SDS011;63247;54.300;18.592;2024-02-26T02:17:10;25.20;;;10.13;;
67248;SDS011;63247;54.300;18.592;2024-02-26T02:19:35;26.83;;;10.02;;
67248;SDS011;63247;54.300;18.592;2024-02-26T02:22:01;24.50;;;10.13;;
67248;SDS011;63247;54.300;18.592;2024-02-26T02:24:27;22.37;;;9.63;;
67248;SDS011;63247;54.300;18.592;2024-02-26T02:26:52;22.60;;;9.85;;
67248;SDS011;63247;54.300;18.592;2024-02-26T02:29:18;23.30;;;10.00;;
67248;SDS011;63247;54.300;18.592;2024-02-26T02:31:43;25.30;;;10.00;;
67248;SDS011;63247;54.300;18.592;2024-02-26T02:34:09;26.52;;;10.68;;
67248;SDS011;63247;54.300;18.592;2024-02-26T02:36:47;29.95;;;11.90;;
67248;SDS011;63247;54.300;18.592;2024-02-26T02:39:19;29.93;;;11.27;;
67248;SDS011;63247;54.300;18.592;2024-02-26T02:41:45;29.55;;;12.20;;
67248;SDS011;63247;54.300;18.592;2024-02-26T02:44:11;30.27;;;12.52;;
67248;SDS011;63247;54.300;18.592;2024-02-26T02:46:37;37.83;;;12.97;;
67248;SDS011;63247;54.300;18.592;2024-02-26T02:49:02;32.63;;;13.20;;
67248;SDS011;63247;54.300;18.592;2024-02-26T02:51:28;38.13;;;13.93;;
67248;SDS011;63247;54.300;18.592;2024-02-26T02:53:54;31.50;;;13.73;;
67248;SDS011;63247;54.300;18.592;2024-02-26T02:56:20;38.35;;;14.95;;
67248;SDS011;63247;54.300;18.592;2024-02-26T02:58:46;34.20;;;13.80;;
67248;SDS011;63247;54.300;18.592;2024-02-26T03:01:13;38.95;;;14.63;;
67248;SDS011;63247;54.300;18.592;2024-02-26T03:03:38;33.92;;;14.27;;
67248;SDS011;63247;54.300;18.592;2024-02-26T03:06:04;35.85;;;13.40;;
67248;SDS011;63247;54.300;18.592;2024-02-26T03:08:29;30.00;;;13.40;;
67248;SDS011;63247;54.300;18.592;2024-02-26T03:10:55;32.27;;;13.03;;
67248;SDS011;63247;54.300;18.592;2024-02-26T03:13:20;31.57;;;13.10;;
67248;SDS011;63247;54.300;18.592;2024-02-26T03:15:46;33.25;;;13.77;;
67248;SDS011;63247;54.300;18.592;2024-02-26T03:18:13;31.52;;;13.27;;
67248;SDS011;63247;54.300;18.592;2024-02-26T03:20:41;32.13;;;13.50;;
67248;SDS011;63247;54.300;18.592;2024-02-26T03:23:06;32.83;;;13.05;;
67248;SDS011;63247;54.300;18.592;2024-02-26T03:25:34;28.53;;;11.93;;
67248;SDS011;63247;54.300;18.592;2024-02-26T03:28:00;28.13;;;11.45;;
67248;SDS011;63247;54.300;18.592;2024-02-26T03:30:25;28.37;;;11.60;;
67248;SDS011;63247;54.300;18.592;2024-02-26T03:32:51;29.10;;;12.00;;
67248;SDS011;63247;54.300;18.592;2024-02-26T03:35:16;27.80;;;11.37;;
67248;SDS011;63247;54.300;18.592;2024-02-26T03:37:42;31.27;;;11.67;;
67248;SDS011;63247;54.300;18.592;2024-02-26T03:40:07;26.58;;;11.15;;
67248;SDS011;63247;54.300;18.592;2024-02-26T03:42:33;27.90;;;11.57;;
67248;SDS011;63247;54.300;18.592;2024-02-26T03:44:58;27.17;;;11.80;;
67248;SDS011;63247;54.300;18.592;2024-02-26T03:47:24;32.75;;;12.20;;
67248;SDS011;63247;54.300;18.592;2024-02-26T03:49:50;29.57;;;11.67;;
67248;SDS011;63247;54.300;18.592;2024-02-26T03:52:16;28.17;;;11.75;;
67248;SDS011;63247;54.300;18.592;2024-02-26T03:54:41;28.77;;;12.57;;
67248;SDS011;63247;54.300;18.592;2024-02-26T03:57:07;33.43;;;13.13;;
67248;SDS011;63247;54.300;18.592;2024-02-26T03:59:32;43.88;;;15.55;;
67248;SDS011;63247;54.300;18.592;2024-02-26T04:01:58;42.77;;;16.17;;
67248;SDS011;63247;54.300;18.592;2024-02-26T04:04:23;45.97;;;16.27;;
67248;SDS011;63247;54.300;18.592;2024-02-26T04:06:48;32.90;;;14.07;;
67248;SDS011;63247;54.300;18.592;2024-02-26T04:09:14;33.10;;;13.07;;
67248;SDS011;63247;54.300;18.592;2024-02-26T04:11:40;30.73;;;12.50;;
67248;SDS011;63247;54.300;18.592;2024-02-26T04:14:05;30.17;;;12.73;;
67248;SDS011;63247;54.300;18.592;2024-02-26T04:16:34;32.88;;;12.82;;
67248;SDS011;63247;54.300;18.592;2024-02-26T04:19:03;31.67;;;12.70;;
67248;SDS011;63247;54.300;18.592;2024-02-26T04:21:29;34.73;;;13.73;;
67248;SDS011;63247;54.300;18.592;2024-02-26T04:23:54;31.77;;;13.17;;
67248;SDS011;63247;54.300;18.592;2024-02-26T04:26:20;33.00;;;13.80;;
67248;SDS011;63247;54.300;18.592;2024-02-26T04:28:46;32.50;;;13.57;;
67248;SDS011;63247;54.300;18.592;2024-02-26T04:31:12;33.28;;;14.15;;
67248;SDS011;63247;54.300;18.592;2024-02-26T04:33:37;34.83;;;14.53;;
67248;SDS011;63247;54.300;18.592;2024-02-26T04:36:03;36.78;;;15.27;;
67248;SDS011;63247;54.300;18.592;2024-02-26T04:38:29;38.25;;;15.18;;
67248;SDS011;63247;54.300;18.592;2024-02-26T04:40:55;41.08;;;16.27;;
67248;SDS011;63247;54.300;18.592;2024-02-26T04:43:21;45.47;;;17.67;;
67248;SDS011;63247;54.300;18.592;2024-02-26T04:45:46;43.78;;;18.27;;
67248;SDS011;63247;54.300;18.592;2024-02-26T04:48:13;47.35;;;18.70;;
67248;SDS011;63247;54.300;18.592;2024-02-26T04:50:38;46.47;;;19.10;;
67248;SDS011;63247;54.300;18.592;2024-02-26T04:53:04;48.17;;;19.27;;
67248;SDS011;63247;54.300;18.592;2024-02-26T04:55:29;49.40;;;19.88;;
67248;SDS011;63247;54.300;18.592;2024-02-26T04:57:55;48.47;;;19.83;;
67248;SDS011;63247;54.300;18.592;2024-02-26T05:00:20;43.40;;;17.67;;
67248;SDS011;63247;54.300;18.592;2024-02-26T05:02:45;47.27;;;17.70;;
67248;SDS011;63247;54.300;18.592;2024-02-26T05:05:11;45.93;;;17.60;;
67248;SDS011;63247;54.300;18.592;2024-02-26T05:07:41;43.55;;;17.50;;
67248;SDS011;63247;54.300;18.592;2024-02-26T05:10:07;49.00;;;18.67;;
67248;SDS011;63247;54.300;18.592;2024-02-26T05:12:33;47.45;;;19.25;;
67248;SDS011;63247;54.300;18.592;2024-02-26T05:15:01;48.63;;;19.55;;
67248;SDS011;63247;54.300;18.592;2024-02-26T05:17:27;48.30;;;19.20;;
67248;SDS011;63247;54.300;18.592;2024-02-26T05:19:53;51.50;;;19.60;;
67248;SDS011;63247;54.300;18.592;2024-02-26T05:22:18;53.05;;;19.55;;
67248;SDS011;63247;54.300;18.592;2024-02-26T05:24:44;50.20;;;19.80;;
67248;SDS011;63247;54.300;18.592;2024-02-26T05:27:09;55.50;;;20.50;;
67248;SDS011;63247;54.300;18.592;2024-02-26T05:29:35;52.65;;;19.50;;
67248;SDS011;63247;54.300;18.592;2024-02-26T05:32:01;48.07;;;18.60;;
67248;SDS011;63247;54.300;18.592;2024-02-26T05:34:26;46.55;;;18.85;;
67248;SDS011;63247;54.300;18.592;2024-02-26T05:36:52;50.50;;;20.13;;
67248;SDS011;63247;54.300;18.592;2024-02-26T05:39:17;50.17;;;19.87;;
67248;SDS011;63247;54.300;18.592;2024-02-26T05:41:44;52.45;;;20.05;;
67248;SDS011;63247;54.300;18.592;2024-02-26T05:44:11;54.35;;;20.75;;
67248;SDS011;63247;54.300;18.592;2024-02-26T05:46:37;53.88;;;20.60;;
67248;SDS011;63247;54.300;18.592;2024-02-26T05:49:03;51.63;;;20.75;;
67248;SDS011;63247;54.300;18.592;2024-02-26T05:51:28;49.00;;;20.57;;
67248;SDS011;63247;54.300;18.592;2024-02-26T05:53:53;52.70;;;20.33;;
67248;SDS011;63247;54.300;18.592;2024-02-26T05:56:22;48.63;;;19.08;;
67248;SDS011;63247;54.300;18.592;2024-02-26T05:58:48;52.15;;;19.80;;
67248;SDS011;63247;54.300;18.592;2024-02-26T06:01:15;47.77;;;19.63;;
67248;SDS011;63247;54.300;18.592;2024-02-26T06:03:42;48.40;;;19.08;;
67248;SDS011;63247;54.300;18.592;2024-02-26T06:06:07;49.58;;;19.13;;
67248;SDS011;63247;54.300;18.592;2024-02-26T06:08:33;49.95;;;19.02;;
67248;SDS011;63247;54.300;18.592;2024-02-26T06:10:58;48.23;;;18.83;;
67248;SDS011;63247;54.300;18.592;2024-02-26T06:13:24;46.93;;;19.33;;
67248;SDS011;63247;54.300;18.592;2024-02-26T06:15:49;44.97;;;18.73;;
67248;SDS011;63247;54.300;18.592;2024-02-26T06:18:15;47.87;;;19.40;;
67248;SDS011;63247;54.300;18.592;2024-02-26T06:20:41;45.08;;;19.20;;
67248;SDS011;63247;54.300;18.592;2024-02-26T06:23:07;47.00;;;19.13;;
67248;SDS011;63247;54.300;18.592;2024-02-26T06:25:32;46.38;;;18.92;;
67248;SDS011;63247;54.300;18.592;2024-02-26T06:27:58;50.90;;;19.00;;
67248;SDS011;63247;54.300;18.592;2024-02-26T06:30:23;42.20;;;18.50;;
67248;SDS011;63247;54.300;18.592;2024-02-26T06:32:49;37.05;;;16.25;;
67248;SDS011;63247;54.300;18.592;2024-02-26T06:35:14;35.00;;;15.63;;
67248;SDS011;63247;54.300;18.592;2024-02-26T06:37:39;38.67;;;15.30;;
67248;SDS011;63247;54.300;18.592;2024-02-26T06:40:05;33.70;;;14.60;;
67248;SDS011;63247;54.300;18.592;2024-02-26T06:42:32;31.30;;;14.60;;
67248;SDS011;63247;54.300;18.592;2024-02-26T06:44:58;27.55;;;13.35;;
67248;SDS011;63247;54.300;18.592;2024-02-26T06:47:23;26.20;;;11.80;;
67248;SDS011;63247;54.300;18.592;2024-02-26T06:49:49;29.80;;;12.70;;
67248;SDS011;63247;54.300;18.592;2024-02-26T06:52:14;27.42;;;12.65;;
67248;SDS011;63247;54.300;18.592;2024-02-26T06:54:40;28.17;;;13.03;;
67248;SDS011;63247;54.300;18.592;2024-02-26T06:57:06;27.35;;;12.95;;
67248;SDS011;63247;54.300;18.592;2024-02-26T06:59:32;29.93;;;15.70;;
67248;SDS011;63247;54.300;18.592;2024-02-26T07:01:58;37.40;;;15.87;;
67248;SDS011;63247;54.300;18.592;2024-02-26T07:04:23;41.47;;;19.67;;
67248;SDS011;63247;54.300;18.592;2024-02-26T07:06:49;40.40;;;20.03;;
67248;SDS011;63247;54.300;18.592;2024-02-26T07:09:14;39.40;;;19.13;;
67248;SDS011;63247;54.300;18.592;2024-02-26T07:11:40;35.85;;;18.35;;
67248;SDS011;63247;54.300;18.592;2024-02-26T07:14:11;35.33;;;17.25;;
67248;SDS011;63247;54.300;18.592;2024-02-26T07:16:37;31.83;;;15.57;;
67248;SDS011;63247;54.300;18.592;2024-02-26T07:19:03;32.17;;;16.07;;
67248;SDS011;63247;54.300;18.592;2024-02-26T07:21:28;31.58;;;15.57;;
67248;SDS011;63247;54.300;18.592;2024-02-26T07:23:54;29.20;;;14.27;;
67248;SDS011;63247;54.300;18.592;2024-02-26T07:26:19;26.53;;;13.23;;
67248;SDS011;63247;54.300;18.592;2024-02-26T07:28:45;22.15;;;12.45;;
67248;SDS011;63247;54.300;18.592;2024-02-26T07:31:11;26.63;;;12.80;;
67248;SDS011;63247;54.300;18.592;2024-02-26T07:33:37;23.85;;;11.77;;
67248;SDS011;63247;54.300;18.592;2024-02-26T07:36:03;23.03;;;12.10;;
67248;SDS011;63247;54.300;18.592;2024-02-26T07:38:30;25.95;;;12.63;;
67248;SDS011;63247;54.300;18.592;2024-02-26T07:40:55;24.47;;;12.43;;
67248;SDS011;63247;54.300;18.592;2024-02-26T07:43:22;28.02;;;13.77;;
67248;SDS011;63247;54.300;18.592;2024-02-26T07:45:47;32.53;;;14.70;;
67248;SDS011;63247;54.300;18.592;2024-02-26T07:48:13;29.50;;;14.60;;
67248;SDS011;63247;54.300;18.592;2024-02-26T07:50:39;27.90;;;13.93;;
67248;SDS011;63247;54.300;18.592;2024-02-26T07:53:05;24.17;;;13.47;;
67248;SDS011;63247;54.300;18.592;2024-02-26T07:55:31;27.02;;;13.57;;
67248;SDS011;63247;54.300;18.592;2024-02-26T07:57:57;28.57;;;15.17;;
67248;SDS011;63247;54.300;18.592;2024-02-26T08:00:22;31.00;;;15.07;;
67248;SDS011;63247;54.300;18.592;2024-02-26T08:02:48;28.67;;;15.47;;
67248;SDS011;63247;54.300;18.592;2024-02-26T08:05:13;34.40;;;18.23;;
67248;SDS011;63247;54.300;18.592;2024-02-26T08:07:39;32.55;;;17.42;;
67248;SDS011;63247;54.300;18.592;2024-02-26T08:10:06;32.93;;;17.30;;
67248;SDS011;63247;54.300;18.592;2024-02-26T08:12:32;35.15;;;17.70;;
67248;SDS011;63247;54.300;18.592;2024-02-26T08:14:57;31.70;;;16.63;;
67248;SDS011;63247;54.300;18.592;2024-02-26T08:17:23;28.88;;;15.32;;
67248;SDS011;63247;54.300;18.592;2024-02-26T08:19:49;28.47;;;15.30;;
67248;SDS011;63247;54.300;18.592;2024-02-26T08:22:14;27.95;;;14.15;;
67248;SDS011;63247;54.300;18.592;2024-02-26T08:24:42;24.63;;;13.85;;
67248;SDS011;63247;54.300;18.592;2024-02-26T08:27:07;22.15;;;12.45;;
67248;SDS011;63247;54.300;18.592;2024-02-26T08:29:33;21.03;;;12.30;;
67248;SDS011;63247;54.300;18.592;2024-02-26T08:31:58;21.20;;;12.00;;
67248;SDS011;63247;54.300;18.592;2024-02-26T08:34:24;23.35;;;12.40;;
67248;SDS011;63247;54.300;18.592;2024-02-26T08:36:50;23.25;;;13.05;;
67248;SDS011;63247;54.300;18.592;2024-02-26T08:39:16;20.17;;;11.77;;
67248;SDS011;63247;54.300;18.592;2024-02-26T08:41:43;22.45;;;13.13;;
67248;SDS011;63247;54.300;18.592;2024-02-26T08:44:09;23.05;;;12.93;;
67248;SDS011;63247;54.300;18.592;2024-02-26T08:46:35;22.55;;;12.77;;
67248;SDS011;63247;54.300;18.592;2024-02-26T08:49:00;22.77;;;12.87;;
67248;SDS011;63247;54.300;18.592;2024-02-26T08:51:26;23.63;;;13.23;;
67248;SDS011;63247;54.300;18.592;2024-02-26T08:53:51;30.17;;;14.43;;
67248;SDS011;63247;54.300;18.592;2024-02-26T08:56:16;28.25;;;14.25;;
67248;SDS011;63247;54.300;18.592;2024-02-26T08:58:42;25.77;;;13.27;;
67248;SDS011;63247;54.300;18.592;2024-02-26T09:01:08;25.88;;;13.93;;
67248;SDS011;63247;54.300;18.592;2024-02-26T09:03:34;24.23;;;12.73;;
67248;SDS011;63247;54.300;18.592;2024-02-26T09:05:59;27.87;;;14.67;;
67248;SDS011;63247;54.300;18.592;2024-02-26T09:08:25;26.90;;;13.85;;
67248;SDS011;63247;54.300;18.592;2024-02-26T09:10:51;21.93;;;12.27;;
67248;SDS011;63247;54.300;18.592;2024-02-26T09:13:17;24.67;;;13.02;;
67248;SDS011;63247;54.300;18.592;2024-02-26T09:15:43;21.90;;;13.07;;
67248;SDS011;63247;54.300;18.592;2024-02-26T09:18:09;23.70;;;13.95;;
67248;SDS011;63247;54.300;18.592;2024-02-26T09:20:35;27.77;;;14.93;;
67248;SDS011;63247;54.300;18.592;2024-02-26T09:23:00;29.00;;;15.38;;
67248;SDS011;63247;54.300;18.592;2024-02-26T09:25:26;25.53;;;12.87;;
67248;SDS011;63247;54.300;18.592;2024-02-26T09:27:51;21.57;;;12.87;;
67248;SDS011;63247;54.300;18.592;2024-02-26T09:30:17;27.50;;;12.23;;
67248;SDS011;63247;54.300;18.592;2024-02-26T09:32:45;23.90;;;12.43;;
67248;SDS011;63247;54.300;18.592;2024-02-26T09:35:12;25.77;;;13.45;;
67248;SDS011;63247;54.300;18.592;2024-02-26T09:37:38;24.63;;;13.07;;
67248;SDS011;63247;54.300;18.592;2024-02-26T09:40:04;27.05;;;14.30;;
67248;SDS011;63247;54.300;18.592;2024-02-26T09:42:31;25.50;;;14.07;;
67248;SDS011;63247;54.300;18.592;2024-02-26T09:44:59;29.67;;;15.07;;
67248;SDS011;63247;54.300;18.592;2024-02-26T09:47:27;33.83;;;17.08;;
67248;SDS011;63247;54.300;18.592;2024-02-26T09:49:56;36.72;;;18.48;;
67248;SDS011;63247;54.300;18.592;2024-02-26T09:52:23;35.00;;;19.33;;
67248;SDS011;63247;54.300;18.592;2024-02-26T09:54:50;35.13;;;19.73;;
67248;SDS011;63247;54.300;18.592;2024-02-26T09:57:16;32.45;;;18.35;;
67248;SDS011;63247;54.300;18.592;2024-02-26T09:59:42;35.88;;;20.13;;
67248;SDS011;63247;54.300;18.592;2024-02-26T10:02:09;38.87;;;19.53;;
67248;SDS011;63247;54.300;18.592;2024-02-26T10:04:37;41.33;;;21.13;;
67248;SDS011;63247;54.300;18.592;2024-02-26T10:07:10;31.70;;;17.60;;
67248;SDS011;63247;54.300;18.592;2024-02-26T10:09:36;42.33;;;23.40;;
67248;SDS011;63247;54.300;18.592;2024-02-26T10:12:02;35.13;;;18.60;;
67248;SDS011;63247;54.300;18.592;2024-02-26T10:14:29;39.17;;;19.75;;
67248;SDS011;63247;54.300;18.592;2024-02-26T10:16:55;36.20;;;19.87;;
67248;SDS011;63247;54.300;18.592;2024-02-26T10:19:28;30.33;;;17.52;;
67248;SDS011;63247;54.300;18.592;2024-02-26T10:21:58;33.90;;;18.33;;
67248;SDS011;63247;54.300;18.592;2024-02-26T10:24:25;36.30;;;17.92;;
67248;SDS011;63247;54.300;18.592;2024-02-26T10:26:52;34.05;;;17.27;;
67248;SDS011;63247;54.300;18.592;2024-02-26T10:29:18;33.17;;;18.73;;
67248;SDS011;63247;54.300;18.592;2024-02-26T10:31:45;32.53;;;15.52;;
67248;SDS011;63247;54.300;18.592;2024-02-26T10:34:11;29.08;;;14.60;;
67248;SDS011;63247;54.300;18.592;2024-02-26T10:36:37;28.33;;;14.07;;
67248;SDS011;63247;54.300;18.592;2024-02-26T10:39:05;31.92;;;15.70;;
67248;SDS011;63247;54.300;18.592;2024-02-26T10:41:32;33.50;;;14.93;;
67248;SDS011;63247;54.300;18.592;2024-02-26T10:43:58;29.95;;;15.48;;
67248;SDS011;63247;54.300;18.592;2024-02-26T10:46:25;29.93;;;14.70;;
67248;SDS011;63247;54.300;18.592;2024-02-26T10:48:50;23.52;;;12.35;;
67248;SDS011;63247;54.300;18.592;2024-02-26T10:51:18;24.85;;;13.00;;
67248;SDS011;63247;54.300;18.592;2024-02-26T10:53:46;24.08;;;12.32;;
67248;SDS011;63247;54.300;18.592;2024-02-26T10:56:14;23.30;;;12.88;;
67248;SDS011;63247;54.300;18.592;2024-02-26T10:58:42;24.90;;;12.80;;
67248;SDS011;63247;54.300;18.592;2024-02-26T11:01:10;27.05;;;13.38;;
67248;SDS011;63247;54.300;18.592;2024-02-26T11:03:37;27.15;;;12.95;;
67248;SDS011;63247;54.300;18.592;2024-02-26T11:06:04;32.13;;;13.52;;
67248;SDS011;63247;54.300;18.592;2024-02-26T11:08:30;29.00;;;13.98;;
67248;SDS011;63247;54.300;18.592;2024-02-26T11:10:57;29.63;;;14.17;;
67248;SDS011;63247;54.300;18.592;2024-02-26T11:13:26;29.85;;;15.93;;
67248;SDS011;63247;54.300;18.592;2024-02-26T11:15:55;31.85;;;16.52;;
67248;SDS011;63247;54.300;18.592;2024-02-26T11:18:22;39.90;;;18.85;;
67248;SDS011;63247;54.300;18.592;2024-02-26T11:20:49;40.10;;;18.83;;
67248;SDS011;63247;54.300;18.592;2024-02-26T11:23:16;41.10;;;18.03;;
67248;SDS011;63247;54.300;18.592;2024-02-26T11:25:41;38.35;;;18.10;;
67248;SDS011;63247;54.300;18.592;2024-02-26T11:28:09;37.97;;;17.00;;
67248;SDS011;63247;54.300;18.592;2024-02-26T11:30:38;36.70;;;17.75;;
67248;SDS011;63247;54.300;18.592;2024-02-26T11:33:07;36.08;;;18.95;;
67248;SDS011;63247;54.300;18.592;2024-02-26T11:35:37;38.03;;;16.75;;
67248;SDS011;63247;54.300;18.592;2024-02-26T11:38:04;36.28;;;16.63;;
67248;SDS011;63247;54.300;18.592;2024-02-26T11:40:31;35.67;;;18.53;;
67248;SDS011;63247;54.300;18.592;2024-02-26T11:42:57;34.47;;;16.98;;
67248;SDS011;63247;54.300;18.592;2024-02-26T11:48:04;35.80;;;17.52;;
67248;SDS011;63247;54.300;18.592;2024-02-26T11:50:57;38.65;;;18.70;;
67248;SDS011;63247;54.300;18.592;2024-02-26T11:53:26;34.43;;;16.87;;
67248;SDS011;63247;54.300;18.592;2024-02-26T11:56:19;37.35;;;17.25;;
67248;SDS011;63247;54.300;18.592;2024-02-26T11:58:42;40.63;;;16.58;;
67248;SDS011;63247;54.300;18.592;2024-02-26T12:04:01;32.90;;;17.20;;
67248;SDS011;63247;54.300;18.592;2024-02-26T12:06:27;35.90;;;17.23;;
67248;SDS011;63247;54.300;18.592;2024-02-26T12:08:53;31.63;;;15.25;;
67248;SDS011;63247;54.300;18.592;2024-02-26T12:11:20;37.78;;;16.20;;
67248;SDS011;63247;54.300;18.592;2024-02-26T12:13:48;32.27;;;15.53;;
67248;SDS011;63247;54.300;18.592;2024-02-26T12:16:34;33.45;;;16.27;;
67248;SDS011;63247;54.300;18.592;2024-02-26T12:19:06;34.50;;;17.05;;
67248;SDS011;63247;54.300;18.592;2024-02-26T12:21:33;34.17;;;15.70;;
67248;SDS011;63247;54.300;18.592;2024-02-26T12:24:12;33.17;;;16.13;;
67248;SDS011;63247;54.300;18.592;2024-02-26T12:26:39;32.47;;;16.48;;
67248;SDS011;63247;54.300;18.592;2024-02-26T12:29:05;37.67;;;16.20;;
67248;SDS011;63247;54.300;18.592;2024-02-26T12:31:33;35.20;;;17.02;;
67248;SDS011;63247;54.300;18.592;2024-02-26T12:34:02;37.67;;;16.65;;
67248;SDS011;63247;54.300;18.592;2024-02-26T12:36:28;36.53;;;17.83;;
67248;SDS011;63247;54.300;18.592;2024-02-26T12:38:54;35.47;;;15.70;;
67248;SDS011;63247;54.300;18.592;2024-02-26T12:41:21;38.33;;;18.58;;
67248;SDS011;63247;54.300;18.592;2024-02-26T12:43:47;39.70;;;18.67;;
67248;SDS011;63247;54.300;18.592;2024-02-26T12:46:12;40.03;;;18.10;;
67248;SDS011;63247;54.300;18.592;2024-02-26T12:48:41;40.03;;;19.90;;
67248;SDS011;63247;54.300;18.592;2024-02-26T12:51:08;39.05;;;18.77;;
67248;SDS011;63247;54.300;18.592;2024-02-26T12:53:36;41.27;;;20.33;;
67248;SDS011;63247;54.300;18.592;2024-02-26T12:56:03;42.60;;;22.08;;
67248;SDS011;63247;54.300;18.592;2024-02-26T12:58:29;42.50;;;20.90;;
67248;SDS011;63247;54.300;18.592;2024-02-26T13:00:56;42.92;;;20.95;;
67248;SDS011;63247;54.300;18.592;2024-02-26T13:03:22;45.03;;;21.42;;
67248;SDS011;63247;54.300;18.592;2024-02-26T13:05:49;48.00;;;22.57;;
67248;SDS011;63247;54.300;18.592;2024-02-26T13:08:21;47.40;;;22.55;;
67248;SDS011;63247;54.300;18.592;2024-02-26T13:10:47;47.67;;;22.60;;
67248;SDS011;63247;54.300;18.592;2024-02-26T13:13:17;49.97;;;23.15;;
67248;SDS011;63247;54.300;18.592;2024-02-26T13:15:46;50.10;;;23.15;;
67248;SDS011;63247;54.300;18.592;2024-02-26T13:18:15;52.77;;;24.30;;
67248;SDS011;63247;54.300;18.592;2024-02-26T13:20:41;51.78;;;25.63;;
67248;SDS011;63247;54.300;18.592;2024-02-26T13:23:08;57.35;;;25.25;;
67248;SDS011;63247;54.300;18.592;2024-02-26T13:25:37;55.15;;;24.85;;
67248;SDS011;63247;54.300;18.592;2024-02-26T13:30:41;55.00;;;24.70;;
67248;SDS011;63247;54.300;18.592;2024-02-26T13:33:10;52.92;;;23.90;;
67248;SDS011;63247;54.300;18.592;2024-02-26T13:35:36;54.45;;;23.63;;
67248;SDS011;63247;54.300;18.592;2024-02-26T13:38:04;55.37;;;24.73;;
67248;SDS011;63247;54.300;18.592;2024-02-26T13:40:31;56.53;;;24.55;;
67248;SDS011;63247;54.300;18.592;2024-02-26T13:42:57;58.60;;;26.60;;
67248;SDS011;63247;54.300;18.592;2024-02-26T13:45:22;63.42;;;25.95;;
67248;SDS011;63247;54.300;18.592;2024-02-26T13:47:48;69.38;;;31.13;;
67248;SDS011;63247;54.300;18.592;2024-02-26T13:50:13;63.47;;;27.97;;
67248;SDS011;63247;54.300;18.592;2024-02-26T13:52:39;69.67;;;29.93;;
67248;SDS011;63247;54.300;18.592;2024-02-26T13:55:04;62.33;;;27.07;;
67248;SDS011;63247;54.300;18.592;2024-02-26T13:57:30;62.35;;;26.60;;
67248;SDS011;63247;54.300;18.592;2024-02-26T13:59:56;64.78;;;27.17;;
67248;SDS011;63247;54.300;18.592;2024-02-26T14:02:21;64.83;;;27.90;;
67248;SDS011;63247;54.300;18.592;2024-02-26T14:04:47;71.40;;;28.27;;
67248;SDS011;63247;54.300;18.592;2024-02-26T14:07:12;80.03;;;32.42;;
67248;SDS011;63247;54.300;18.592;2024-02-26T14:09:38;69.27;;;29.40;;
67248;SDS011;63247;54.300;18.592;2024-02-26T14:12:04;70.55;;;30.52;;
67248;SDS011;63247;54.300;18.592;2024-02-26T14:14:30;71.70;;;30.47;;